sensor_id;sensor_type;location;lat;lon;timestamp;P1;durP1;ratioP1;P2;durP2;ratioP2
15616;SDS011;7908;51.688;7.130;2023-03-01T00:02:03;4.87;;;3.60;;
15616;SDS011;7908;51.688;7.130;2023-03-01T00:04:33;7.07;;;3.73;;
15616;SDS011;7908;51.688;7.130;2023-03-01T00:07:04;5.73;;;4.40;;
15616;SDS011;7908;51.688;7.130;2023-03-01T00:09:33;6.83;;;4.00;;
15616;SDS011;7908;51.688;7.130;2023-03-01T00:12:03;6.00;;;4.13;;
15616;SDS011;7908;51.688;7.130;2023-03-01T00:14:32;7.50;;;4.77;;
15616;SDS011;7908;51.688;7.130;2023-03-01T00:17:01;8.33;;;4.30;;
15616;SDS011;7908;51.688;7.130;2023-03-01T00:19:31;8.70;;;4.50;;
15616;SDS011;7908;51.688;7.130;2023-03-01T00:22:00;5.60;;;4.17;;
15616;SDS011;7908;51.688;7.130;2023-03-01T00:24:30;6.80;;;4.20;;
15616;SDS011;7908;51.688;7.130;2023-03-01T00:26:58;9.00;;;4.03;;
15616;SDS011;7908;51.688;7.130;2023-03-01T00:29:27;9.47;;;4.20;;
15616;SDS011;7908;51.688;7.130;2023-03-01T00:31:56;8.17;;;4.53;;
15616;SDS011;7908;51.688;7.130;2023-03-01T00:34:25;6.07;;;4.57;;
15616;SDS011;7908;51.688;7.130;2023-03-01T00:36:53;5.13;;;3.83;;
15616;SDS011;7908;51.688;7.130;2023-03-01T00:39:33;7.43;;;4.40;;
15616;SDS011;7908;51.688;7.130;2023-03-01T00:42:01;6.27;;;4.40;;
15616;SDS011;7908;51.688;7.130;2023-03-01T00:44:30;7.10;;;3.53;;
15616;SDS011;7908;51.688;7.130;2023-03-01T00:47:00;8.63;;;4.30;;
15616;SDS011;7908;51.688;7.130;2023-03-01T00:49:29;5.47;;;3.87;;
15616;SDS011;7908;51.688;7.130;2023-03-01T00:51:58;7.60;;;4.47;;
15616;SDS011;7908;51.688;7.130;2023-03-01T00:54:26;7.37;;;4.53;;
15616;SDS011;7908;51.688;7.130;2023-03-01T00:56:56;7.37;;;4.37;;
15616;SDS011;7908;51.688;7.130;2023-03-01T00:59:25;8.60;;;4.50;;
15616;SDS011;7908;51.688;7.130;2023-03-01T01:01:54;6.77;;;4.60;;
15616;SDS011;7908;51.688;7.130;2023-03-01T01:04:22;5.73;;;4.40;;
15616;SDS011;7908;51.688;7.130;2023-03-01T01:06:51;5.40;;;4.17;;
15616;SDS011;7908;51.688;7.130;2023-03-01T01:09:20;6.07;;;4.20;;
15616;SDS011;7908;51.688;7.130;2023-03-01T01:11:50;7.67;;;3.63;;
15616;SDS011;7908;51.688;7.130;2023-03-01T01:14:20;6.87;;;3.90;;
15616;SDS011;7908;51.688;7.130;2023-03-01T01:16:48;6.10;;;3.87;;
15616;SDS011;7908;51.688;7.130;2023-03-01T01:19:18;6.27;;;3.93;;
15616;SDS011;7908;51.688;7.130;2023-03-01T01:21:46;7.13;;;4.87;;
15616;SDS011;7908;51.688;7.130;2023-03-01T01:24:15;8.97;;;5.20;;
15616;SDS011;7908;51.688;7.130;2023-03-01T01:26:45;7.27;;;4.53;;
15616;SDS011;7908;51.688;7.130;2023-03-01T01:29:13;7.30;;;4.87;;
15616;SDS011;7908;51.688;7.130;2023-03-01T01:31:43;7.57;;;4.13;;
15616;SDS011;7908;51.688;7.130;2023-03-01T01:34:13;5.90;;;4.40;;
15616;SDS011;7908;51.688;7.130;2023-03-01T01:36:44;6.10;;;4.33;;
15616;SDS011;7908;51.688;7.130;2023-03-01T01:39:15;5.03;;;3.90;;
15616;SDS011;7908;51.688;7.130;2023-03-01T01:41:44;9.30;;;5.03;;
15616;SDS011;7908;51.688;7.130;2023-03-01T01:44:15;7.87;;;4.40;;
15616;SDS011;7908;51.688;7.130;2023-03-01T01:46:47;7.20;;;4.67;;
15616;SDS011;7908;51.688;7.130;2023-03-01T01:49:20;7.40;;;4.50;;
15616;SDS011;7908;51.688;7.130;2023-03-01T01:51:55;6.07;;;4.20;;
15616;SDS011;7908;51.688;7.130;2023-03-01T01:54:30;7.77;;;4.77;;
15616;SDS011;7908;51.688;7.130;2023-03-01T01:57:06;5.97;;;4.30;;
15616;SDS011;7908;51.688;7.130;2023-03-01T01:59:38;8.03;;;5.33;;
15616;SDS011;7908;51.688;7.130;2023-03-01T02:02:11;5.63;;;4.03;;
15616;SDS011;7908;51.688;7.130;2023-03-01T02:04:40;6.37;;;4.57;;
15616;SDS011;7908;51.688;7.130;2023-03-01T02:07:12;5.83;;;4.37;;
15616;SDS011;7908;51.688;7.130;2023-03-01T02:09:45;6.27;;;4.63;;
15616;SDS011;7908;51.688;7.130;2023-03-01T02:12:16;8.33;;;4.37;;
15616;SDS011;7908;51.688;7.130;2023-03-01T02:14:47;6.83;;;4.23;;
15616;SDS011;7908;51.688;7.130;2023-03-01T02:17:17;8.13;;;5.20;;
15616;SDS011;7908;51.688;7.130;2023-03-01T02:19:50;6.37;;;4.73;;
15616;SDS011;7908;51.688;7.130;2023-03-01T02:22:34;6.33;;;4.80;;
15616;SDS011;7908;51.688;7.130;2023-03-01T02:25:08;7.07;;;4.87;;
15616;SDS011;7908;51.688;7.130;2023-03-01T02:27:48;7.20;;;4.50;;
15616;SDS011;7908;51.688;7.130;2023-03-01T02:30:25;5.57;;;3.80;;
15616;SDS011;7908;51.688;7.130;2023-03-01T02:32:55;6.77;;;4.23;;
15616;SDS011;7908;51.688;7.130;2023-03-01T02:35:29;7.23;;;4.83;;
15616;SDS011;7908;51.688;7.130;2023-03-01T02:38:01;11.73;;;4.87;;
15616;SDS011;7908;51.688;7.130;2023-03-01T02:40:34;8.43;;;4.20;;
15616;SDS011;7908;51.688;7.130;2023-03-01T02:43:06;8.43;;;4.87;;
15616;SDS011;7908;51.688;7.130;2023-03-01T02:45:42;10.60;;;5.63;;
15616;SDS011;7908;51.688;7.130;2023-03-01T02:48:15;9.57;;;5.23;;
15616;SDS011;7908;51.688;7.130;2023-03-01T02:50:51;7.73;;;4.70;;
15616;SDS011;7908;51.688;7.130;2023-03-01T02:53:34;7.10;;;5.40;;
15616;SDS011;7908;51.688;7.130;2023-03-01T02:56:13;7.57;;;5.13;;
15616;SDS011;7908;51.688;7.130;2023-03-01T02:58:41;9.50;;;6.27;;
15616;SDS011;7908;51.688;7.130;2023-03-01T03:01:16;7.90;;;6.00;;
15616;SDS011;7908;51.688;7.130;2023-03-01T03:03:44;10.83;;;5.90;;
15616;SDS011;7908;51.688;7.130;2023-03-01T03:06:13;8.47;;;5.80;;
15616;SDS011;7908;51.688;7.130;2023-03-01T03:08:42;9.10;;;6.23;;
15616;SDS011;7908;51.688;7.130;2023-03-01T03:11:10;10.23;;;5.70;;
15616;SDS011;7908;51.688;7.130;2023-03-01T03:13:39;7.97;;;5.43;;
15616;SDS011;7908;51.688;7.130;2023-03-01T03:16:18;8.50;;;6.00;;
15616;SDS011;7908;51.688;7.130;2023-03-01T03:18:47;9.47;;;6.20;;
15616;SDS011;7908;51.688;7.130;2023-03-01T03:21:16;6.87;;;4.50;;
15616;SDS011;7908;51.688;7.130;2023-03-01T03:23:45;9.73;;;6.40;;
15616;SDS011;7908;51.688;7.130;2023-03-01T03:26:13;11.97;;;6.10;;
15616;SDS011;7908;51.688;7.130;2023-03-01T03:28:42;11.07;;;6.30;;
15616;SDS011;7908;51.688;7.130;2023-03-01T03:31:10;11.73;;;5.97;;
15616;SDS011;7908;51.688;7.130;2023-03-01T03:33:40;12.87;;;6.67;;
15616;SDS011;7908;51.688;7.130;2023-03-01T03:36:09;8.17;;;5.13;;
15616;SDS011;7908;51.688;7.130;2023-03-01T03:38:44;7.07;;;5.03;;
15616;SDS011;7908;51.688;7.130;2023-03-01T03:41:13;10.87;;;5.60;;
15616;SDS011;7908;51.688;7.130;2023-03-01T03:43:42;7.87;;;5.50;;
15616;SDS011;7908;51.688;7.130;2023-03-01T03:46:11;7.03;;;4.60;;
15616;SDS011;7908;51.688;7.130;2023-03-01T03:48:42;6.53;;;4.27;;
15616;SDS011;7908;51.688;7.130;2023-03-01T03:51:12;8.77;;;5.13;;
15616;SDS011;7908;51.688;7.130;2023-03-01T03:53:42;9.20;;;5.40;;
15616;SDS011;7908;51.688;7.130;2023-03-01T03:56:11;8.83;;;6.00;;
15616;SDS011;7908;51.688;7.130;2023-03-01T03:58:40;9.93;;;5.70;;
15616;SDS011;7908;51.688;7.130;2023-03-01T04:01:09;8.87;;;5.30;;
15616;SDS011;7908;51.688;7.130;2023-03-01T04:03:37;9.50;;;6.00;;
15616;SDS011;7908;51.688;7.130;2023-03-01T04:06:07;10.13;;;6.03;;
15616;SDS011;7908;51.688;7.130;2023-03-01T04:08:36;8.43;;;4.80;;
15616;SDS011;7908;51.688;7.130;2023-03-01T04:11:05;10.23;;;5.17;;
15616;SDS011;7908;51.688;7.130;2023-03-01T04:13:55;8.17;;;5.00;;
15616;SDS011;7908;51.688;7.130;2023-03-01T04:16:27;11.30;;;6.33;;
15616;SDS011;7908;51.688;7.130;2023-03-01T04:18:56;11.27;;;5.17;;
15616;SDS011;7908;51.688;7.130;2023-03-01T04:21:27;13.17;;;5.93;;
15616;SDS011;7908;51.688;7.130;2023-03-01T04:23:56;9.67;;;6.00;;
15616;SDS011;7908;51.688;7.130;2023-03-01T04:26:24;10.37;;;6.13;;
15616;SDS011;7908;51.688;7.130;2023-03-01T04:28:53;8.17;;;5.27;;
15616;SDS011;7908;51.688;7.130;2023-03-01T04:31:22;8.27;;;4.97;;
15616;SDS011;7908;51.688;7.130;2023-03-01T04:33:51;11.93;;;5.80;;
15616;SDS011;7908;51.688;7.130;2023-03-01T04:36:24;13.53;;;5.80;;
15616;SDS011;7908;51.688;7.130;2023-03-01T04:38:56;6.97;;;5.23;;
15616;SDS011;7908;51.688;7.130;2023-03-01T04:41:24;10.30;;;5.80;;
15616;SDS011;7908;51.688;7.130;2023-03-01T04:43:53;9.10;;;6.37;;
15616;SDS011;7908;51.688;7.130;2023-03-01T04:46:22;13.30;;;6.63;;
15616;SDS011;7908;51.688;7.130;2023-03-01T04:48:51;11.13;;;6.00;;
15616;SDS011;7908;51.688;7.130;2023-03-01T04:51:20;9.77;;;6.73;;
15616;SDS011;7908;51.688;7.130;2023-03-01T04:53:49;9.63;;;6.27;;
15616;SDS011;7908;51.688;7.130;2023-03-01T04:56:19;12.37;;;6.70;;
15616;SDS011;7908;51.688;7.130;2023-03-01T04:58:49;12.57;;;6.70;;
15616;SDS011;7908;51.688;7.130;2023-03-01T05:01:21;7.73;;;5.60;;
15616;SDS011;7908;51.688;7.130;2023-03-01T05:03:50;11.87;;;6.80;;
15616;SDS011;7908;51.688;7.130;2023-03-01T05:06:19;11.53;;;5.97;;
15616;SDS011;7908;51.688;7.130;2023-03-01T05:08:48;8.53;;;6.20;;
15616;SDS011;7908;51.688;7.130;2023-03-01T05:11:18;9.47;;;6.23;;
15616;SDS011;7908;51.688;7.130;2023-03-01T05:13:46;9.57;;;4.93;;
15616;SDS011;7908;51.688;7.130;2023-03-01T05:16:16;8.30;;;5.80;;
15616;SDS011;7908;51.688;7.130;2023-03-01T05:18:46;7.97;;;5.93;;
15616;SDS011;7908;51.688;7.130;2023-03-01T05:21:17;10.07;;;4.90;;
15616;SDS011;7908;51.688;7.130;2023-03-01T05:23:46;10.47;;;5.83;;
15616;SDS011;7908;51.688;7.130;2023-03-01T05:26:15;11.40;;;6.27;;
15616;SDS011;7908;51.688;7.130;2023-03-01T05:28:55;10.07;;;6.20;;
15616;SDS011;7908;51.688;7.130;2023-03-01T05:31:25;13.43;;;6.80;;
15616;SDS011;7908;51.688;7.130;2023-03-01T05:33:54;9.37;;;6.60;;
15616;SDS011;7908;51.688;7.130;2023-03-01T05:36:23;11.10;;;6.97;;
15616;SDS011;7908;51.688;7.130;2023-03-01T05:38:51;10.63;;;6.33;;
15616;SDS011;7908;51.688;7.130;2023-03-01T05:41:20;10.57;;;6.77;;
15616;SDS011;7908;51.688;7.130;2023-03-01T05:43:49;12.37;;;6.53;;
15616;SDS011;7908;51.688;7.130;2023-03-01T05:46:19;12.20;;;6.33;;
15616;SDS011;7908;51.688;7.130;2023-03-01T05:48:51;12.63;;;6.73;;
15616;SDS011;7908;51.688;7.130;2023-03-01T05:51:19;10.90;;;6.60;;
15616;SDS011;7908;51.688;7.130;2023-03-01T05:53:48;8.23;;;5.30;;
15616;SDS011;7908;51.688;7.130;2023-03-01T05:56:17;9.00;;;5.67;;
15616;SDS011;7908;51.688;7.130;2023-03-01T05:58:47;12.70;;;6.87;;
15616;SDS011;7908;51.688;7.130;2023-03-01T06:01:16;12.77;;;5.63;;
15616;SDS011;7908;51.688;7.130;2023-03-01T06:03:46;9.30;;;5.53;;
15616;SDS011;7908;51.688;7.130;2023-03-01T06:06:15;9.33;;;5.80;;
15616;SDS011;7908;51.688;7.130;2023-03-01T06:08:43;11.27;;;6.47;;
15616;SDS011;7908;51.688;7.130;2023-03-01T06:11:12;9.67;;;6.17;;
15616;SDS011;7908;51.688;7.130;2023-03-01T06:13:41;10.90;;;5.80;;
15616;SDS011;7908;51.688;7.130;2023-03-01T06:16:10;10.37;;;6.13;;
15616;SDS011;7908;51.688;7.130;2023-03-01T06:18:39;9.07;;;5.70;;
15616;SDS011;7908;51.688;7.130;2023-03-01T06:21:09;8.93;;;5.53;;
15616;SDS011;7908;51.688;7.130;2023-03-01T06:23:38;9.00;;;5.30;;
15616;SDS011;7908;51.688;7.130;2023-03-01T06:26:07;8.80;;;5.83;;
15616;SDS011;7908;51.688;7.130;2023-03-01T06:28:36;8.93;;;5.87;;
15616;SDS011;7908;51.688;7.130;2023-03-01T06:31:04;10.67;;;6.20;;
15616;SDS011;7908;51.688;7.130;2023-03-01T06:33:35;10.83;;;5.67;;
15616;SDS011;7908;51.688;7.130;2023-03-01T06:36:04;11.50;;;6.80;;
15616;SDS011;7908;51.688;7.130;2023-03-01T06:38:34;10.43;;;6.07;;
15616;SDS011;7908;51.688;7.130;2023-03-01T06:41:03;11.00;;;6.00;;
15616;SDS011;7908;51.688;7.130;2023-03-01T06:43:33;11.60;;;6.87;;
15616;SDS011;7908;51.688;7.130;2023-03-01T06:46:03;9.93;;;5.77;;
15616;SDS011;7908;51.688;7.130;2023-03-01T06:48:33;12.67;;;7.27;;
15616;SDS011;7908;51.688;7.130;2023-03-01T06:51:02;10.83;;;6.70;;
15616;SDS011;7908;51.688;7.130;2023-03-01T06:53:31;12.13;;;6.90;;
15616;SDS011;7908;51.688;7.130;2023-03-01T06:56:01;10.70;;;6.00;;
15616;SDS011;7908;51.688;7.130;2023-03-01T06:58:30;15.97;;;7.60;;
15616;SDS011;7908;51.688;7.130;2023-03-01T07:00:58;11.40;;;7.10;;
15616;SDS011;7908;51.688;7.130;2023-03-01T07:03:27;14.13;;;7.03;;
15616;SDS011;7908;51.688;7.130;2023-03-01T07:05:55;13.47;;;7.83;;
15616;SDS011;7908;51.688;7.130;2023-03-01T07:08:24;13.50;;;7.50;;
15616;SDS011;7908;51.688;7.130;2023-03-01T07:10:54;12.53;;;6.77;;
15616;SDS011;7908;51.688;7.130;2023-03-01T07:13:25;9.27;;;6.00;;
15616;SDS011;7908;51.688;7.130;2023-03-01T07:15:54;11.70;;;6.10;;
15616;SDS011;7908;51.688;7.130;2023-03-01T07:18:23;11.23;;;6.30;;
15616;SDS011;7908;51.688;7.130;2023-03-01T07:20:52;10.40;;;6.23;;
15616;SDS011;7908;51.688;7.130;2023-03-01T07:23:21;11.17;;;6.77;;
15616;SDS011;7908;51.688;7.130;2023-03-01T07:25:53;14.10;;;7.60;;
15616;SDS011;7908;51.688;7.130;2023-03-01T07:28:23;10.67;;;7.07;;
15616;SDS011;7908;51.688;7.130;2023-03-01T07:30:53;13.10;;;7.83;;
15616;SDS011;7908;51.688;7.130;2023-03-01T07:33:22;13.63;;;7.93;;
15616;SDS011;7908;51.688;7.130;2023-03-01T07:35:55;14.43;;;6.57;;
15616;SDS011;7908;51.688;7.130;2023-03-01T07:38:26;14.63;;;8.30;;
15616;SDS011;7908;51.688;7.130;2023-03-01T07:40:57;12.80;;;7.37;;
15616;SDS011;7908;51.688;7.130;2023-03-01T07:43:29;13.77;;;8.47;;
15616;SDS011;7908;51.688;7.130;2023-03-01T07:45:58;14.33;;;9.50;;
15616;SDS011;7908;51.688;7.130;2023-03-01T07:48:31;14.00;;;8.87;;
15616;SDS011;7908;51.688;7.130;2023-03-01T07:51:01;12.87;;;8.77;;
15616;SDS011;7908;51.688;7.130;2023-03-01T07:53:33;15.80;;;9.73;;
15616;SDS011;7908;51.688;7.130;2023-03-01T07:56:03;12.73;;;8.23;;
15616;SDS011;7908;51.688;7.130;2023-03-01T07:58:35;16.70;;;10.17;;
15616;SDS011;7908;51.688;7.130;2023-03-01T08:01:05;15.43;;;10.03;;
15616;SDS011;7908;51.688;7.130;2023-03-01T08:03:35;14.90;;;9.77;;
15616;SDS011;7908;51.688;7.130;2023-03-01T08:06:05;16.70;;;9.30;;
15616;SDS011;7908;51.688;7.130;2023-03-01T08:08:35;14.60;;;9.93;;
15616;SDS011;7908;51.688;7.130;2023-03-01T08:11:05;15.87;;;9.47;;
15616;SDS011;7908;51.688;7.130;2023-03-01T08:13:36;13.37;;;8.77;;
15616;SDS011;7908;51.688;7.130;2023-03-01T08:16:06;15.13;;;10.27;;
15616;SDS011;7908;51.688;7.130;2023-03-01T08:18:37;14.60;;;10.93;;
15616;SDS011;7908;51.688;7.130;2023-03-01T08:21:07;16.57;;;10.43;;
15616;SDS011;7908;51.688;7.130;2023-03-01T08:23:37;13.87;;;9.33;;
15616;SDS011;7908;51.688;7.130;2023-03-01T08:26:07;13.40;;;10.13;;
15616;SDS011;7908;51.688;7.130;2023-03-01T08:28:40;13.00;;;9.10;;
15616;SDS011;7908;51.688;7.130;2023-03-01T08:31:16;14.83;;;9.57;;
15616;SDS011;7908;51.688;7.130;2023-03-01T08:33:46;15.03;;;7.77;;
15616;SDS011;7908;51.688;7.130;2023-03-01T08:36:18;10.33;;;7.23;;
15616;SDS011;7908;51.688;7.130;2023-03-01T08:38:47;9.87;;;7.20;;
15616;SDS011;7908;51.688;7.130;2023-03-01T08:41:16;10.47;;;7.47;;
15616;SDS011;7908;51.688;7.130;2023-03-01T08:43:47;11.63;;;7.37;;
15616;SDS011;7908;51.688;7.130;2023-03-01T08:46:16;10.37;;;7.10;;
15616;SDS011;7908;51.688;7.130;2023-03-01T08:48:45;10.60;;;6.90;;
15616;SDS011;7908;51.688;7.130;2023-03-01T08:51:15;11.40;;;7.40;;
15616;SDS011;7908;51.688;7.130;2023-03-01T08:53:45;8.23;;;6.03;;
15616;SDS011;7908;51.688;7.130;2023-03-01T08:56:14;11.13;;;7.57;;
15616;SDS011;7908;51.688;7.130;2023-03-01T08:58:47;11.13;;;7.10;;
15616;SDS011;7908;51.688;7.130;2023-03-01T09:01:17;9.60;;;7.33;;
15616;SDS011;7908;51.688;7.130;2023-03-01T09:03:46;8.40;;;7.03;;
15616;SDS011;7908;51.688;7.130;2023-03-01T09:06:15;10.30;;;7.47;;
15616;SDS011;7908;51.688;7.130;2023-03-01T09:08:44;10.73;;;6.87;;
15616;SDS011;7908;51.688;7.130;2023-03-01T09:11:15;9.43;;;7.10;;
15616;SDS011;7908;51.688;7.130;2023-03-01T09:13:48;8.67;;;7.00;;
15616;SDS011;7908;51.688;7.130;2023-03-01T09:16:18;8.20;;;6.47;;
15616;SDS011;7908;51.688;7.130;2023-03-01T09:18:48;9.63;;;6.33;;
15616;SDS011;7908;51.688;7.130;2023-03-01T09:21:19;10.80;;;5.90;;
15616;SDS011;7908;51.688;7.130;2023-03-01T09:24:05;9.00;;;5.70;;
15616;SDS011;7908;51.688;7.130;2023-03-01T09:26:34;9.27;;;6.60;;
15616;SDS011;7908;51.688;7.130;2023-03-01T09:29:06;11.13;;;6.57;;
15616;SDS011;7908;51.688;7.130;2023-03-01T09:31:36;9.07;;;6.93;;
15616;SDS011;7908;51.688;7.130;2023-03-01T09:34:05;9.33;;;6.43;;
15616;SDS011;7908;51.688;7.130;2023-03-01T09:36:34;8.00;;;6.40;;
15616;SDS011;7908;51.688;7.130;2023-03-01T09:39:03;8.30;;;5.90;;
15616;SDS011;7908;51.688;7.130;2023-03-01T09:41:38;9.23;;;6.90;;
15616;SDS011;7908;51.688;7.130;2023-03-01T09:44:20;8.57;;;6.13;;
15616;SDS011;7908;51.688;7.130;2023-03-01T09:46:57;9.10;;;5.93;;
15616;SDS011;7908;51.688;7.130;2023-03-01T09:49:27;7.83;;;6.27;;
15616;SDS011;7908;51.688;7.130;2023-03-01T09:52:00;6.93;;;5.57;;
15616;SDS011;7908;51.688;7.130;2023-03-01T09:54:32;8.90;;;5.57;;
15616;SDS011;7908;51.688;7.130;2023-03-01T09:57:06;8.47;;;5.73;;
15616;SDS011;7908;51.688;7.130;2023-03-01T09:59:52;8.87;;;6.00;;
15616;SDS011;7908;51.688;7.130;2023-03-01T10:02:32;10.03;;;5.43;;
15616;SDS011;7908;51.688;7.130;2023-03-01T10:05:12;8.37;;;5.80;;
15616;SDS011;7908;51.688;7.130;2023-03-01T10:07:51;7.40;;;5.07;;
15616;SDS011;7908;51.688;7.130;2023-03-01T10:10:28;7.67;;;5.23;;
15616;SDS011;7908;51.688;7.130;2023-03-01T10:13:01;6.70;;;5.30;;
15616;SDS011;7908;51.688;7.130;2023-03-01T10:15:34;8.13;;;5.30;;
15616;SDS011;7908;51.688;7.130;2023-03-01T10:18:09;7.60;;;5.40;;
15616;SDS011;7908;51.688;7.130;2023-03-01T10:20:45;6.70;;;4.73;;
15616;SDS011;7908;51.688;7.130;2023-03-01T10:23:18;8.63;;;5.40;;
15616;SDS011;7908;51.688;7.130;2023-03-01T10:25:52;8.87;;;5.47;;
15616;SDS011;7908;51.688;7.130;2023-03-01T10:28:31;7.10;;;4.93;;
15616;SDS011;7908;51.688;7.130;2023-03-01T10:33:44;8.63;;;5.53;;
15616;SDS011;7908;51.688;7.130;2023-03-01T10:36:14;6.63;;;5.30;;
15616;SDS011;7908;51.688;7.130;2023-03-01T10:38:48;7.63;;;5.50;;
15616;SDS011;7908;51.688;7.130;2023-03-01T10:41:23;7.63;;;5.20;;
15616;SDS011;7908;51.688;7.130;2023-03-01T10:43:55;7.63;;;5.13;;
15616;SDS011;7908;51.688;7.130;2023-03-01T10:46:28;8.63;;;5.93;;
15616;SDS011;7908;51.688;7.130;2023-03-01T10:49:05;7.10;;;5.57;;
15616;SDS011;7908;51.688;7.130;2023-03-01T10:51:40;7.87;;;5.43;;
15616;SDS011;7908;51.688;7.130;2023-03-01T10:54:20;7.83;;;6.00;;
15616;SDS011;7908;51.688;7.130;2023-03-01T10:56:54;7.57;;;5.73;;
15616;SDS011;7908;51.688;7.130;2023-03-01T10:59:27;8.77;;;6.50;;
15616;SDS011;7908;51.688;7.130;2023-03-01T11:02:12;9.67;;;5.70;;
15616;SDS011;7908;51.688;7.130;2023-03-01T11:04:58;7.73;;;5.33;;
15616;SDS011;7908;51.688;7.130;2023-03-01T11:07:29;9.13;;;6.23;;
15616;SDS011;7908;51.688;7.130;2023-03-01T11:09:58;7.90;;;5.67;;
15616;SDS011;7908;51.688;7.130;2023-03-01T11:12:29;8.70;;;5.70;;
15616;SDS011;7908;51.688;7.130;2023-03-01T11:15:08;7.07;;;6.03;;
15616;SDS011;7908;51.688;7.130;2023-03-01T11:18:01;9.27;;;6.33;;
15616;SDS011;7908;51.688;7.130;2023-03-01T11:20:39;8.03;;;5.73;;
15616;SDS011;7908;51.688;7.130;2023-03-01T11:23:10;8.23;;;6.20;;
15616;SDS011;7908;51.688;7.130;2023-03-01T11:25:46;9.77;;;6.30;;
15616;SDS011;7908;51.688;7.130;2023-03-01T11:28:20;9.57;;;6.40;;
15616;SDS011;7908;51.688;7.130;2023-03-01T11:30:53;7.20;;;5.87;;
15616;SDS011;7908;51.688;7.130;2023-03-01T11:33:37;8.43;;;6.37;;
15616;SDS011;7908;51.688;7.130;2023-03-01T11:36:16;7.53;;;5.53;;
15616;SDS011;7908;51.688;7.130;2023-03-01T11:38:50;8.53;;;6.10;;
15616;SDS011;7908;51.688;7.130;2023-03-01T11:41:21;6.97;;;5.77;;
15616;SDS011;7908;51.688;7.130;2023-03-01T11:43:55;11.30;;;9.70;;
15616;SDS011;7908;51.688;7.130;2023-03-01T11:49:36;10.93;;;7.20;;
15616;SDS011;7908;51.688;7.130;2023-03-01T11:52:18;7.20;;;6.33;;
15616;SDS011;7908;51.688;7.130;2023-03-01T11:54:59;10.13;;;6.53;;
15616;SDS011;7908;51.688;7.130;2023-03-01T11:57:48;9.03;;;6.73;;
15616;SDS011;7908;51.688;7.130;2023-03-01T12:00:35;10.37;;;6.43;;
15616;SDS011;7908;51.688;7.130;2023-03-01T12:03:16;8.30;;;6.60;;
15616;SDS011;7908;51.688;7.130;2023-03-01T12:09:07;10.47;;;6.83;;
15616;SDS011;7908;51.688;7.130;2023-03-01T12:11:50;10.10;;;7.23;;
15616;SDS011;7908;51.688;7.130;2023-03-01T12:14:34;10.30;;;7.53;;
15616;SDS011;7908;51.688;7.130;2023-03-01T12:17:27;7.90;;;6.73;;
15616;SDS011;7908;51.688;7.130;2023-03-01T12:20:17;10.30;;;6.13;;
15616;SDS011;7908;51.688;7.130;2023-03-01T12:22:59;8.07;;;6.53;;
15616;SDS011;7908;51.688;7.130;2023-03-01T12:25:50;9.93;;;6.87;;
15616;SDS011;7908;51.688;7.130;2023-03-01T12:28:31;9.47;;;6.57;;
15616;SDS011;7908;51.688;7.130;2023-03-01T12:34:20;13.80;;;9.93;;
15616;SDS011;7908;51.688;7.130;2023-03-01T12:37:16;9.10;;;7.67;;
15616;SDS011;7908;51.688;7.130;2023-03-01T12:39:59;10.93;;;7.00;;
15616;SDS011;7908;51.688;7.130;2023-03-01T12:42:46;9.07;;;6.50;;
15616;SDS011;7908;51.688;7.130;2023-03-01T12:45:31;8.70;;;6.73;;
15616;SDS011;7908;51.688;7.130;2023-03-01T12:48:18;8.57;;;6.60;;
15616;SDS011;7908;51.688;7.130;2023-03-01T12:50:59;8.63;;;6.57;;
15616;SDS011;7908;51.688;7.130;2023-03-01T12:53:32;9.87;;;6.87;;
15616;SDS011;7908;51.688;7.130;2023-03-01T12:56:07;9.33;;;6.90;;
15616;SDS011;7908;51.688;7.130;2023-03-01T12:58:39;9.63;;;7.37;;
15616;SDS011;7908;51.688;7.130;2023-03-01T13:01:22;9.10;;;7.20;;
15616;SDS011;7908;51.688;7.130;2023-03-01T13:04:10;10.13;;;7.47;;
15616;SDS011;7908;51.688;7.130;2023-03-01T13:06:47;8.40;;;6.97;;
15616;SDS011;7908;51.688;7.130;2023-03-01T13:09:24;11.07;;;6.93;;
15616;SDS011;7908;51.688;7.130;2023-03-01T13:15:25;10.77;;;8.03;;
15616;SDS011;7908;51.688;7.130;2023-03-01T13:18:01;10.67;;;7.83;;
15616;SDS011;7908;51.688;7.130;2023-03-01T13:20:33;9.60;;;7.70;;
15616;SDS011;7908;51.688;7.130;2023-03-01T13:23:13;9.23;;;7.00;;
15616;SDS011;7908;51.688;7.130;2023-03-01T13:26:08;10.07;;;7.13;;
15616;SDS011;7908;51.688;7.130;2023-03-01T13:28:48;11.17;;;8.13;;
15616;SDS011;7908;51.688;7.130;2023-03-01T13:34:41;10.27;;;8.17;;
15616;SDS011;7908;51.688;7.130;2023-03-01T13:37:18;10.53;;;7.60;;
15616;SDS011;7908;51.688;7.130;2023-03-01T13:39:49;9.93;;;8.07;;
15616;SDS011;7908;51.688;7.130;2023-03-01T13:42:34;10.80;;;8.00;;
15616;SDS011;7908;51.688;7.130;2023-03-01T13:45:15;10.30;;;7.70;;
15616;SDS011;7908;51.688;7.130;2023-03-01T13:47:48;10.10;;;7.43;;
15616;SDS011;7908;51.688;7.130;2023-03-01T13:50:23;10.93;;;7.87;;
15616;SDS011;7908;51.688;7.130;2023-03-01T13:52:55;10.63;;;8.20;;
15616;SDS011;7908;51.688;7.130;2023-03-01T13:55:34;9.93;;;7.90;;
15616;SDS011;7908;51.688;7.130;2023-03-01T13:58:13;8.33;;;7.07;;
15616;SDS011;7908;51.688;7.130;2023-03-01T14:00:54;11.50;;;7.73;;
15616;SDS011;7908;51.688;7.130;2023-03-01T14:03:24;10.77;;;7.27;;
15616;SDS011;7908;51.688;7.130;2023-03-01T14:05:58;10.17;;;7.63;;
15616;SDS011;7908;51.688;7.130;2023-03-01T14:08:41;9.50;;;7.47;;
15616;SDS011;7908;51.688;7.130;2023-03-01T14:14:41;9.33;;;7.43;;
15616;SDS011;7908;51.688;7.130;2023-03-01T14:17:24;10.27;;;7.20;;
15616;SDS011;7908;51.688;7.130;2023-03-01T14:20:09;8.57;;;6.87;;
15616;SDS011;7908;51.688;7.130;2023-03-01T14:22:41;8.90;;;7.37;;
15616;SDS011;7908;51.688;7.130;2023-03-01T14:25:19;9.03;;;6.80;;
15616;SDS011;7908;51.688;7.130;2023-03-01T14:27:54;9.90;;;7.57;;
15616;SDS011;7908;51.688;7.130;2023-03-01T14:30:32;11.63;;;7.20;;
15616;SDS011;7908;51.688;7.130;2023-03-01T14:33:17;8.70;;;6.47;;
15616;SDS011;7908;51.688;7.130;2023-03-01T14:35:53;7.93;;;6.67;;
15616;SDS011;7908;51.688;7.130;2023-03-01T14:38:29;8.70;;;6.50;;
15616;SDS011;7908;51.688;7.130;2023-03-01T14:41:02;8.33;;;6.47;;
15616;SDS011;7908;51.688;7.130;2023-03-01T14:43:34;7.87;;;7.03;;
15616;SDS011;7908;51.688;7.130;2023-03-01T14:46:04;9.57;;;6.53;;
15616;SDS011;7908;51.688;7.130;2023-03-01T14:48:36;9.20;;;6.73;;
15616;SDS011;7908;51.688;7.130;2023-03-01T14:51:05;7.93;;;6.87;;
15616;SDS011;7908;51.688;7.130;2023-03-01T14:53:34;10.30;;;6.93;;
15616;SDS011;7908;51.688;7.130;2023-03-01T14:56:16;10.03;;;7.10;;
15616;SDS011;7908;51.688;7.130;2023-03-01T14:58:46;10.17;;;7.03;;
15616;SDS011;7908;51.688;7.130;2023-03-01T15:01:19;9.07;;;6.43;;
15616;SDS011;7908;51.688;7.130;2023-03-01T15:03:52;8.17;;;6.30;;
15616;SDS011;7908;51.688;7.130;2023-03-01T15:06:25;8.63;;;7.30;;
15616;SDS011;7908;51.688;7.130;2023-03-01T15:08:56;9.37;;;6.63;;
15616;SDS011;7908;51.688;7.130;2023-03-01T15:11:29;9.63;;;7.27;;
15616;SDS011;7908;51.688;7.130;2023-03-01T15:13:59;9.43;;;7.57;;
15616;SDS011;7908;51.688;7.130;2023-03-01T15:16:28;9.60;;;6.63;;
15616;SDS011;7908;51.688;7.130;2023-03-01T15:19:06;9.13;;;6.77;;
15616;SDS011;7908;51.688;7.130;2023-03-01T15:21:36;12.33;;;7.10;;
15616;SDS011;7908;51.688;7.130;2023-03-01T15:24:16;10.20;;;6.83;;
15616;SDS011;7908;51.688;7.130;2023-03-01T15:26:52;11.30;;;6.67;;
15616;SDS011;7908;51.688;7.130;2023-03-01T15:29:27;8.87;;;6.63;;
15616;SDS011;7908;51.688;7.130;2023-03-01T15:32:01;9.80;;;6.67;;
15616;SDS011;7908;51.688;7.130;2023-03-01T15:34:35;10.30;;;7.00;;
15616;SDS011;7908;51.688;7.130;2023-03-01T15:37:06;9.43;;;6.90;;
15616;SDS011;7908;51.688;7.130;2023-03-01T15:40:00;8.60;;;6.37;;
15616;SDS011;7908;51.688;7.130;2023-03-01T15:42:37;8.23;;;6.53;;
15616;SDS011;7908;51.688;7.130;2023-03-01T15:45:10;8.13;;;5.80;;
15616;SDS011;7908;51.688;7.130;2023-03-01T15:47:48;9.67;;;6.40;;
15616;SDS011;7908;51.688;7.130;2023-03-01T15:50:21;8.07;;;5.87;;
15616;SDS011;7908;51.688;7.130;2023-03-01T15:52:53;8.90;;;5.83;;